sensor_id;sensor_type;location;lat;lon;timestamp;temperature;humidity
814;DHT22;389;48.710;9.392;2024-02-21T00:05:06;6.20;99.90
814;DHT22;389;48.710;9.392;2024-02-21T00:07:35;6.10;99.90
814;DHT22;389;48.710;9.392;2024-02-21T00:10:06;6.20;99.90
814;DHT22;389;48.710;9.392;2024-02-21T00:12:58;6.10;99.90
814;DHT22;389;48.710;9.392;2024-02-21T00:15:25;6.10;99.90
814;DHT22;389;48.710;9.392;2024-02-21T00:17:53;6.20;99.90
814;DHT22;389;48.710;9.392;2024-02-21T00:20:25;6.20;99.90
814;DHT22;389;48.710;9.392;2024-02-21T00:22:55;6.30;99.90
814;DHT22;389;48.710;9.392;2024-02-21T00:25:24;6.30;99.90
814;DHT22;389;48.710;9.392;2024-02-21T00:27:49;6.30;99.90
814;DHT22;389;48.710;9.392;2024-02-21T00:30:42;6.30;99.90
814;DHT22;389;48.710;9.392;2024-02-21T00:33:25;6.20;99.90
814;DHT22;389;48.710;9.392;2024-02-21T00:36:05;6.40;99.90
814;DHT22;389;48.710;9.392;2024-02-21T00:38:38;6.30;99.90
814;DHT22;389;48.710;9.392;2024-02-21T00:41:15;6.30;99.90
814;DHT22;389;48.710;9.392;2024-02-21T00:43:51;6.30;99.90
814;DHT22;389;48.710;9.392;2024-02-21T00:46:19;6.30;99.90
814;DHT22;389;48.710;9.392;2024-02-21T00:48:47;6.30;99.90
814;DHT22;389;48.710;9.392;2024-02-21T00:51:23;6.30;99.90
814;DHT22;389;48.710;9.392;2024-02-21T00:53:52;6.30;99.90
814;DHT22;389;48.710;9.392;2024-02-21T00:56:35;6.30;99.90
814;DHT22;389;48.710;9.392;2024-02-21T00:59:00;6.40;99.90
814;DHT22;389;48.710;9.392;2024-02-21T01:01:26;6.50;99.90
814;DHT22;389;48.710;9.392;2024-02-21T01:03:54;6.40;99.90
814;DHT22;389;48.710;9.392;2024-02-21T01:06:20;6.50;99.90
814;DHT22;389;48.710;9.392;2024-02-21T01:08:51;6.50;99.90
814;DHT22;389;48.710;9.392;2024-02-21T01:11:20;6.40;99.90
814;DHT22;389;48.710;9.392;2024-02-21T01:13:50;6.50;99.90
814;DHT22;389;48.710;9.392;2024-02-21T01:16:23;6.50;99.90
814;DHT22;389;48.710;9.392;2024-02-21T01:18:51;6.60;99.90
814;DHT22;389;48.710;9.392;2024-02-21T01:21:16;6.50;99.90
814;DHT22;389;48.710;9.392;2024-02-21T01:23:42;6.50;99.90
814;DHT22;389;48.710;9.392;2024-02-21T01:28:52;6.60;99.90
814;DHT22;389;48.710;9.392;2024-02-21T01:31:20;6.60;99.90
814;DHT22;389;48.710;9.392;2024-02-21T01:33:50;6.40;99.90
814;DHT22;389;48.710;9.392;2024-02-21T01:36:16;6.60;99.90
814;DHT22;389;48.710;9.392;2024-02-21T01:38:44;6.60;99.90
814;DHT22;389;48.710;9.392;2024-02-21T01:41:10;6.60;99.90
814;DHT22;389;48.710;9.392;2024-02-21T01:43:38;6.70;99.90
814;DHT22;389;48.710;9.392;2024-02-21T01:46:03;6.70;99.90
814;DHT22;389;48.710;9.392;2024-02-21T01:48:29;6.70;99.90
814;DHT22;389;48.710;9.392;2024-02-21T01:50:56;6.70;99.90
814;DHT22;389;48.710;9.392;2024-02-21T01:53:31;6.80;99.90
814;DHT22;389;48.710;9.392;2024-02-21T01:55:59;6.70;99.90
814;DHT22;389;48.710;9.392;2024-02-21T01:58:25;6.80;99.90
814;DHT22;389;48.710;9.392;2024-02-21T02:00:51;6.80;99.90
814;DHT22;389;48.710;9.392;2024-02-21T02:03:16;6.80;99.90
814;DHT22;389;48.710;9.392;2024-02-21T02:05:49;6.80;99.90
814;DHT22;389;48.710;9.392;2024-02-21T02:08:19;6.80;99.90
814;DHT22;389;48.710;9.392;2024-02-21T02:10:47;6.80;99.90
814;DHT22;389;48.710;9.392;2024-02-21T02:13:13;6.80;99.90
814;DHT22;389;48.710;9.392;2024-02-21T02:15:45;6.80;99.90
814;DHT22;389;48.710;9.392;2024-02-21T02:18:12;6.80;99.90
814;DHT22;389;48.710;9.392;2024-02-21T02:20:38;6.80;99.80
814;DHT22;389;48.710;9.392;2024-02-21T02:23:10;6.80;99.70
814;DHT22;389;48.710;9.392;2024-02-21T02:25:36;6.80;99.60
814;DHT22;389;48.710;9.392;2024-02-21T02:28:06;6.80;99.60
814;DHT22;389;48.710;9.392;2024-02-21T02:30:32;6.80;99.60
814;DHT22;389;48.710;9.392;2024-02-21T02:32:59;6.80;99.60
814;DHT22;389;48.710;9.392;2024-02-21T02:35:25;6.80;99.60
814;DHT22;389;48.710;9.392;2024-02-21T02:37:50;6.80;99.70
814;DHT22;389;48.710;9.392;2024-02-21T02:40:19;6.80;99.60
814;DHT22;389;48.710;9.392;2024-02-21T02:42:45;6.80;99.60
814;DHT22;389;48.710;9.392;2024-02-21T02:45:11;6.90;99.70
814;DHT22;389;48.710;9.392;2024-02-21T02:47:36;6.90;99.70
814;DHT22;389;48.710;9.392;2024-02-21T02:50:02;6.90;99.70
814;DHT22;389;48.710;9.392;2024-02-21T02:52:28;6.90;99.70
814;DHT22;389;48.710;9.392;2024-02-21T02:54:54;6.90;99.70
814;DHT22;389;48.710;9.392;2024-02-21T02:57:21;6.90;99.80
814;DHT22;389;48.710;9.392;2024-02-21T02:59:53;6.90;99.80
814;DHT22;389;48.710;9.392;2024-02-21T03:02:18;7.00;99.80
814;DHT22;389;48.710;9.392;2024-02-21T03:04:44;7.00;99.80
814;DHT22;389;48.710;9.392;2024-02-21T03:07:10;7.00;99.80
814;DHT22;389;48.710;9.392;2024-02-21T03:09:37;7.00;99.90
814;DHT22;389;48.710;9.392;2024-02-21T03:12:03;7.00;99.80
814;DHT22;389;48.710;9.392;2024-02-21T03:14:29;7.00;99.90
814;DHT22;389;48.710;9.392;2024-02-21T03:16:55;7.00;99.90
814;DHT22;389;48.710;9.392;2024-02-21T03:19:21;7.10;99.90
814;DHT22;389;48.710;9.392;2024-02-21T03:21:46;7.10;99.90
814;DHT22;389;48.710;9.392;2024-02-21T03:24:12;7.10;99.80
814;DHT22;389;48.710;9.392;2024-02-21T03:26:37;7.10;99.80
814;DHT22;389;48.710;9.392;2024-02-21T03:29:03;7.20;99.80
814;DHT22;389;48.710;9.392;2024-02-21T03:31:29;7.20;99.80
814;DHT22;389;48.710;9.392;2024-02-21T03:33:54;7.10;99.70
814;DHT22;389;48.710;9.392;2024-02-21T03:36:20;7.20;99.80
814;DHT22;389;48.710;9.392;2024-02-21T03:38:46;7.20;99.80
814;DHT22;389;48.710;9.392;2024-02-21T03:41:11;7.20;99.70
814;DHT22;389;48.710;9.392;2024-02-21T03:43:38;7.10;99.60
814;DHT22;389;48.710;9.392;2024-02-21T03:46:04;7.10;99.60
814;DHT22;389;48.710;9.392;2024-02-21T03:48:29;7.10;99.60
814;DHT22;389;48.710;9.392;2024-02-21T03:50:55;7.00;99.60
814;DHT22;389;48.710;9.392;2024-02-21T03:53:20;7.00;99.70
814;DHT22;389;48.710;9.392;2024-02-21T03:55:46;6.90;99.60
814;DHT22;389;48.710;9.392;2024-02-21T03:58:11;6.80;99.60
814;DHT22;389;48.710;9.392;2024-02-21T04:00:37;6.80;99.70
814;DHT22;389;48.710;9.392;2024-02-21T04:03:03;6.70;99.70
814;DHT22;389;48.710;9.392;2024-02-21T04:05:28;6.70;99.80
814;DHT22;389;48.710;9.392;2024-02-21T04:07:54;6.60;99.80
814;DHT22;389;48.710;9.392;2024-02-21T04:10:19;6.50;99.90
814;DHT22;389;48.710;9.392;2024-02-21T04:12:45;6.40;99.90
814;DHT22;389;48.710;9.392;2024-02-21T04:15:10;6.40;99.90
814;DHT22;389;48.710;9.392;2024-02-21T04:17:36;6.40;99.90
814;DHT22;389;48.710;9.392;2024-02-21T04:20:05;6.40;99.90
814;DHT22;389;48.710;9.392;2024-02-21T04:22:33;6.30;99.90
814;DHT22;389;48.710;9.392;2024-02-21T04:25:02;6.30;99.90
814;DHT22;389;48.710;9.392;2024-02-21T04:27:28;6.30;99.90
814;DHT22;389;48.710;9.392;2024-02-21T04:29:54;6.30;99.90
814;DHT22;389;48.710;9.392;2024-02-21T04:32:19;6.30;99.90
814;DHT22;389;48.710;9.392;2024-02-21T04:34:45;6.20;99.90
814;DHT22;389;48.710;9.392;2024-02-21T04:37:10;6.30;99.90
814;DHT22;389;48.710;9.392;2024-02-21T04:39:36;6.30;99.90
814;DHT22;389;48.710;9.392;2024-02-21T04:42:01;6.50;99.90
814;DHT22;389;48.710;9.392;2024-02-21T04:44:27;6.30;99.90
814;DHT22;389;48.710;9.392;2024-02-21T04:46:52;6.30;99.90
814;DHT22;389;48.710;9.392;2024-02-21T04:49:18;6.20;99.90
814;DHT22;389;48.710;9.392;2024-02-21T04:51:44;6.10;99.90
814;DHT22;389;48.710;9.392;2024-02-21T04:54:09;6.10;99.90
814;DHT22;389;48.710;9.392;2024-02-21T04:56:35;6.00;99.90
814;DHT22;389;48.710;9.392;2024-02-21T04:59:00;6.00;99.90
814;DHT22;389;48.710;9.392;2024-02-21T05:01:27;5.90;99.90
814;DHT22;389;48.710;9.392;2024-02-21T05:03:53;5.90;99.90
814;DHT22;389;48.710;9.392;2024-02-21T05:06:18;5.80;99.90
814;DHT22;389;48.710;9.392;2024-02-21T05:08:44;5.70;99.90
814;DHT22;389;48.710;9.392;2024-02-21T05:11:10;5.60;99.90
814;DHT22;389;48.710;9.392;2024-02-21T05:13:35;5.60;99.90
814;DHT22;389;48.710;9.392;2024-02-21T05:16:01;5.50;99.90
814;DHT22;389;48.710;9.392;2024-02-21T05:18:27;5.40;99.90
814;DHT22;389;48.710;9.392;2024-02-21T05:20:53;5.40;99.90
814;DHT22;389;48.710;9.392;2024-02-21T05:23:19;5.30;99.90
814;DHT22;389;48.710;9.392;2024-02-21T05:25:45;5.20;99.90
814;DHT22;389;48.710;9.392;2024-02-21T05:28:10;5.10;99.90
814;DHT22;389;48.710;9.392;2024-02-21T05:30:36;5.10;99.90
814;DHT22;389;48.710;9.392;2024-02-21T05:33:07;5.00;99.90
814;DHT22;389;48.710;9.392;2024-02-21T05:35:34;4.90;99.90
814;DHT22;389;48.710;9.392;2024-02-21T05:37:59;4.80;99.90
814;DHT22;389;48.710;9.392;2024-02-21T05:40:25;4.70;99.90
814;DHT22;389;48.710;9.392;2024-02-21T05:42:51;4.70;99.90
814;DHT22;389;48.710;9.392;2024-02-21T05:45:17;4.60;99.90
814;DHT22;389;48.710;9.392;2024-02-21T05:47:43;4.60;99.90
814;DHT22;389;48.710;9.392;2024-02-21T05:50:09;4.50;99.90
814;DHT22;389;48.710;9.392;2024-02-21T05:52:35;4.50;99.90
814;DHT22;389;48.710;9.392;2024-02-21T05:55:00;4.40;99.90
814;DHT22;389;48.710;9.392;2024-02-21T05:57:26;4.40;99.90
814;DHT22;389;48.710;9.392;2024-02-21T05:59:52;4.30;99.90
814;DHT22;389;48.710;9.392;2024-02-21T06:02:17;4.30;99.90
814;DHT22;389;48.710;9.392;2024-02-21T06:04:43;4.30;99.90
814;DHT22;389;48.710;9.392;2024-02-21T06:07:09;4.20;99.90
814;DHT22;389;48.710;9.392;2024-02-21T06:09:35;4.20;99.90
814;DHT22;389;48.710;9.392;2024-02-21T06:12:01;4.20;99.90
814;DHT22;389;48.710;9.392;2024-02-21T06:14:26;4.10;99.90
814;DHT22;389;48.710;9.392;2024-02-21T06:16:52;4.10;99.90
814;DHT22;389;48.710;9.392;2024-02-21T06:19:17;4.10;99.90
814;DHT22;389;48.710;9.392;2024-02-21T06:21:43;4.10;99.90
814;DHT22;389;48.710;9.392;2024-02-21T06:24:08;4.10;99.90
814;DHT22;389;48.710;9.392;2024-02-21T06:26:34;4.10;99.90
814;DHT22;389;48.710;9.392;2024-02-21T06:28:59;4.10;99.90
814;DHT22;389;48.710;9.392;2024-02-21T06:31:25;4.10;99.90
814;DHT22;389;48.710;9.392;2024-02-21T06:33:51;4.10;99.90
814;DHT22;389;48.710;9.392;2024-02-21T06:36:16;4.10;99.90
814;DHT22;389;48.710;9.392;2024-02-21T06:38:42;4.10;99.90
814;DHT22;389;48.710;9.392;2024-02-21T06:41:18;4.00;99.90
814;DHT22;389;48.710;9.392;2024-02-21T06:43:45;4.10;99.90
814;DHT22;389;48.710;9.392;2024-02-21T06:46:11;4.10;99.90
814;DHT22;389;48.710;9.392;2024-02-21T06:48:37;4.10;99.90
814;DHT22;389;48.710;9.392;2024-02-21T06:51:03;4.20;99.90
814;DHT22;389;48.710;9.392;2024-02-21T06:53:29;4.10;99.90
814;DHT22;389;48.710;9.392;2024-02-21T06:55:54;4.20;99.90
814;DHT22;389;48.710;9.392;2024-02-21T06:58:20;4.10;99.90
814;DHT22;389;48.710;9.392;2024-02-21T07:00:45;4.20;99.90
814;DHT22;389;48.710;9.392;2024-02-21T07:03:11;4.20;99.90
814;DHT22;389;48.710;9.392;2024-02-21T07:05:36;4.20;99.90
814;DHT22;389;48.710;9.392;2024-02-21T07:08:02;4.30;99.90
814;DHT22;389;48.710;9.392;2024-02-21T07:10:29;4.30;99.90
814;DHT22;389;48.710;9.392;2024-02-21T07:12:55;4.40;99.90
814;DHT22;389;48.710;9.392;2024-02-21T07:15:21;4.40;99.90
814;DHT22;389;48.710;9.392;2024-02-21T07:17:46;4.50;99.90
814;DHT22;389;48.710;9.392;2024-02-21T07:20:12;4.60;99.90
814;DHT22;389;48.710;9.392;2024-02-21T07:22:37;4.60;99.90
814;DHT22;389;48.710;9.392;2024-02-21T07:25:03;4.70;99.90
814;DHT22;389;48.710;9.392;2024-02-21T07:27:29;4.70;99.90
814;DHT22;389;48.710;9.392;2024-02-21T07:29:57;4.80;99.90
814;DHT22;389;48.710;9.392;2024-02-21T07:32:22;4.90;99.90
814;DHT22;389;48.710;9.392;2024-02-21T07:34:48;5.00;99.90
814;DHT22;389;48.710;9.392;2024-02-21T07:37:13;5.10;99.90
814;DHT22;389;48.710;9.392;2024-02-21T07:39:39;5.20;99.90
814;DHT22;389;48.710;9.392;2024-02-21T07:42:04;5.30;99.90
814;DHT22;389;48.710;9.392;2024-02-21T07:44:31;5.40;99.90
814;DHT22;389;48.710;9.392;2024-02-21T07:46:57;5.60;99.90
814;DHT22;389;48.710;9.392;2024-02-21T07:49:23;5.70;99.90
814;DHT22;389;48.710;9.392;2024-02-21T07:51:49;5.80;99.90
814;DHT22;389;48.710;9.392;2024-02-21T07:54:14;5.90;99.90
814;DHT22;389;48.710;9.392;2024-02-21T07:56:40;6.00;99.90
814;DHT22;389;48.710;9.392;2024-02-21T07:59:06;6.20;99.90
814;DHT22;389;48.710;9.392;2024-02-21T08:01:31;6.30;99.90
814;DHT22;389;48.710;9.392;2024-02-21T08:03:57;6.40;99.90
814;DHT22;389;48.710;9.392;2024-02-21T08:06:24;6.50;99.90
814;DHT22;389;48.710;9.392;2024-02-21T08:08:49;6.60;99.90
814;DHT22;389;48.710;9.392;2024-02-21T08:11:15;6.80;99.90
814;DHT22;389;48.710;9.392;2024-02-21T08:13:40;6.80;99.90
814;DHT22;389;48.710;9.392;2024-02-21T08:16:06;6.90;99.90
814;DHT22;389;48.710;9.392;2024-02-21T08:18:32;7.10;99.90
814;DHT22;389;48.710;9.392;2024-02-21T08:21:01;7.20;99.90
814;DHT22;389;48.710;9.392;2024-02-21T08:23:27;7.50;99.90
814;DHT22;389;48.710;9.392;2024-02-21T08:25:52;7.70;99.90
814;DHT22;389;48.710;9.392;2024-02-21T08:28:18;7.70;99.90
814;DHT22;389;48.710;9.392;2024-02-21T08:30:44;7.90;99.70
814;DHT22;389;48.710;9.392;2024-02-21T08:33:14;7.90;99.10
814;DHT22;389;48.710;9.392;2024-02-21T08:35:40;8.00;98.80
814;DHT22;389;48.710;9.392;2024-02-21T08:38:05;8.20;99.00
814;DHT22;389;48.710;9.392;2024-02-21T08:40:31;8.30;98.80
814;DHT22;389;48.710;9.392;2024-02-21T08:42:56;8.50;98.70
814;DHT22;389;48.710;9.392;2024-02-21T08:45:22;8.70;98.60
814;DHT22;389;48.710;9.392;2024-02-21T08:47:47;8.80;98.00
814;DHT22;389;48.710;9.392;2024-02-21T08:50:13;9.00;98.00
814;DHT22;389;48.710;9.392;2024-02-21T08:52:38;9.20;97.70
814;DHT22;389;48.710;9.392;2024-02-21T08:55:04;9.30;97.40
814;DHT22;389;48.710;9.392;2024-02-21T08:57:30;9.50;96.20
814;DHT22;389;48.710;9.392;2024-02-21T09:00:04;9.60;95.60
814;DHT22;389;48.710;9.392;2024-02-21T09:02:36;9.80;95.40
814;DHT22;389;48.710;9.392;2024-02-21T09:05:02;9.90;95.10
814;DHT22;389;48.710;9.392;2024-02-21T09:07:30;10.00;94.20
814;DHT22;389;48.710;9.392;2024-02-21T09:09:56;10.10;93.60
814;DHT22;389;48.710;9.392;2024-02-21T09:12:21;10.20;93.60
814;DHT22;389;48.710;9.392;2024-02-21T09:14:47;10.30;93.50
814;DHT22;389;48.710;9.392;2024-02-21T09:17:16;10.40;93.00
814;DHT22;389;48.710;9.392;2024-02-21T09:19:43;10.50;92.60
814;DHT22;389;48.710;9.392;2024-02-21T09:22:09;10.60;92.70
814;DHT22;389;48.710;9.392;2024-02-21T09:24:34;10.70;92.80
814;DHT22;389;48.710;9.392;2024-02-21T09:27:00;10.80;92.40
814;DHT22;389;48.710;9.392;2024-02-21T09:29:25;10.90;92.50
814;DHT22;389;48.710;9.392;2024-02-21T09:31:51;11.00;92.40
814;DHT22;389;48.710;9.392;2024-02-21T09:34:17;11.00;92.30
814;DHT22;389;48.710;9.392;2024-02-21T09:36:43;11.10;92.20
814;DHT22;389;48.710;9.392;2024-02-21T09:39:10;11.20;92.30
814;DHT22;389;48.710;9.392;2024-02-21T09:41:44;11.30;92.10
814;DHT22;389;48.710;9.392;2024-02-21T09:44:13;11.30;91.70
814;DHT22;389;48.710;9.392;2024-02-21T09:46:55;11.30;91.60
814;DHT22;389;48.710;9.392;2024-02-21T09:49:32;11.40;91.50
814;DHT22;389;48.710;9.392;2024-02-21T09:52:05;11.40;91.60
814;DHT22;389;48.710;9.392;2024-02-21T09:54:33;11.50;91.70
814;DHT22;389;48.710;9.392;2024-02-21T09:57:03;11.60;91.70
814;DHT22;389;48.710;9.392;2024-02-21T09:59:31;11.70;91.70
814;DHT22;389;48.710;9.392;2024-02-21T10:01:56;11.80;91.40
814;DHT22;389;48.710;9.392;2024-02-21T10:04:23;11.90;91.40
814;DHT22;389;48.710;9.392;2024-02-21T10:06:48;12.00;91.20
814;DHT22;389;48.710;9.392;2024-02-21T10:09:27;12.00;90.70
814;DHT22;389;48.710;9.392;2024-02-21T10:11:54;12.10;90.50
814;DHT22;389;48.710;9.392;2024-02-21T10:14:20;12.20;90.40
814;DHT22;389;48.710;9.392;2024-02-21T10:16:56;12.50;90.50
814;DHT22;389;48.710;9.392;2024-02-21T10:19:21;12.40;90.50
814;DHT22;389;48.710;9.392;2024-02-21T10:22:04;12.60;90.60
814;DHT22;389;48.710;9.392;2024-02-21T10:24:31;12.70;89.50
814;DHT22;389;48.710;9.392;2024-02-21T10:27:05;12.90;88.60
814;DHT22;389;48.710;9.392;2024-02-21T10:29:37;13.00;87.20
814;DHT22;389;48.710;9.392;2024-02-21T10:32:11;13.20;86.10
814;DHT22;389;48.710;9.392;2024-02-21T10:34:38;13.30;86.00
814;DHT22;389;48.710;9.392;2024-02-21T10:37:09;13.50;85.80
814;DHT22;389;48.710;9.392;2024-02-21T10:39:39;13.70;85.30
814;DHT22;389;48.710;9.392;2024-02-21T10:42:05;13.80;83.70
814;DHT22;389;48.710;9.392;2024-02-21T10:44:32;14.00;83.10
814;DHT22;389;48.710;9.392;2024-02-21T10:46:58;14.10;82.10
814;DHT22;389;48.710;9.392;2024-02-21T10:49:25;14.10;80.60
814;DHT22;389;48.710;9.392;2024-02-21T10:51:59;14.20;80.60
814;DHT22;389;48.710;9.392;2024-02-21T10:54:47;14.30;80.40
814;DHT22;389;48.710;9.392;2024-02-21T10:57:15;14.40;79.40
814;DHT22;389;48.710;9.392;2024-02-21T10:59:42;14.50;79.10
814;DHT22;389;48.710;9.392;2024-02-21T11:02:07;14.60;78.80
814;DHT22;389;48.710;9.392;2024-02-21T11:04:34;14.70;78.60
814;DHT22;389;48.710;9.392;2024-02-21T11:07:05;14.80;77.70
814;DHT22;389;48.710;9.392;2024-02-21T11:09:32;14.90;77.60
814;DHT22;389;48.710;9.392;2024-02-21T11:11:58;15.00;77.40
814;DHT22;389;48.710;9.392;2024-02-21T11:14:27;15.00;75.70
814;DHT22;389;48.710;9.392;2024-02-21T11:16:53;15.10;75.90
814;DHT22;389;48.710;9.392;2024-02-21T11:19:25;15.40;76.20
814;DHT22;389;48.710;9.392;2024-02-21T11:21:52;15.30;75.20
814;DHT22;389;48.710;9.392;2024-02-21T11:26:54;15.50;74.00
814;DHT22;389;48.710;9.392;2024-02-21T11:29:26;15.60;73.70
814;DHT22;389;48.710;9.392;2024-02-21T11:31:52;15.70;73.70
814;DHT22;389;48.710;9.392;2024-02-21T11:34:18;15.70;73.40
814;DHT22;389;48.710;9.392;2024-02-21T11:36:51;15.80;73.20
814;DHT22;389;48.710;9.392;2024-02-21T11:39:25;15.90;72.80
814;DHT22;389;48.710;9.392;2024-02-21T11:42:20;15.90;72.40
814;DHT22;389;48.710;9.392;2024-02-21T11:44:45;16.00;73.10
814;DHT22;389;48.710;9.392;2024-02-21T11:47:11;16.20;72.20
814;DHT22;389;48.710;9.392;2024-02-21T11:49:47;16.20;72.40
814;DHT22;389;48.710;9.392;2024-02-21T11:52:14;16.20;72.40
814;DHT22;389;48.710;9.392;2024-02-21T11:54:41;16.30;71.60
814;DHT22;389;48.710;9.392;2024-02-21T11:57:06;16.30;71.00
814;DHT22;389;48.710;9.392;2024-02-21T11:59:33;16.40;71.00
814;DHT22;389;48.710;9.392;2024-02-21T12:02:00;16.50;70.10
814;DHT22;389;48.710;9.392;2024-02-21T12:04:26;16.70;70.20
814;DHT22;389;48.710;9.392;2024-02-21T12:06:53;16.60;69.60
814;DHT22;389;48.710;9.392;2024-02-21T12:09:19;16.60;70.10
814;DHT22;389;48.710;9.392;2024-02-21T12:11:45;16.60;70.20
814;DHT22;389;48.710;9.392;2024-02-21T12:14:21;16.80;70.40
814;DHT22;389;48.710;9.392;2024-02-21T12:16:47;16.70;69.00
814;DHT22;389;48.710;9.392;2024-02-21T12:19:14;16.60;69.30
814;DHT22;389;48.710;9.392;2024-02-21T12:21:42;16.80;69.20
814;DHT22;389;48.710;9.392;2024-02-21T12:24:14;16.70;66.70
814;DHT22;389;48.710;9.392;2024-02-21T12:26:40;16.60;65.60
814;DHT22;389;48.710;9.392;2024-02-21T12:29:06;16.70;65.40
814;DHT22;389;48.710;9.392;2024-02-21T12:31:37;16.70;65.00
814;DHT22;389;48.710;9.392;2024-02-21T12:34:03;16.70;64.60
814;DHT22;389;48.710;9.392;2024-02-21T12:36:30;16.90;64.50
814;DHT22;389;48.710;9.392;2024-02-21T12:38:56;16.80;65.10
814;DHT22;389;48.710;9.392;2024-02-21T12:41:21;16.80;65.10
814;DHT22;389;48.710;9.392;2024-02-21T12:43:47;16.80;65.20
814;DHT22;389;48.710;9.392;2024-02-21T12:46:12;17.00;65.60
814;DHT22;389;48.710;9.392;2024-02-21T12:48:38;17.00;65.70
814;DHT22;389;48.710;9.392;2024-02-21T12:51:05;16.90;64.80
814;DHT22;389;48.710;9.392;2024-02-21T12:53:30;17.00;64.70
814;DHT22;389;48.710;9.392;2024-02-21T12:55:56;17.00;64.70
814;DHT22;389;48.710;9.392;2024-02-21T12:58:22;17.10;64.80
814;DHT22;389;48.710;9.392;2024-02-21T13:00:47;17.30;64.40
814;DHT22;389;48.710;9.392;2024-02-21T13:03:14;17.20;63.90
814;DHT22;389;48.710;9.392;2024-02-21T13:05:39;17.40;64.10
814;DHT22;389;48.710;9.392;2024-02-21T13:08:14;17.30;63.60
814;DHT22;389;48.710;9.392;2024-02-21T13:10:40;17.40;63.60
814;DHT22;389;48.710;9.392;2024-02-21T13:13:05;17.30;63.60
814;DHT22;389;48.710;9.392;2024-02-21T13:15:31;17.40;64.10
814;DHT22;389;48.710;9.392;2024-02-21T13:17:57;17.50;64.30
814;DHT22;389;48.710;9.392;2024-02-21T13:20:25;17.50;64.40
814;DHT22;389;48.710;9.392;2024-02-21T13:22:52;17.60;64.60
814;DHT22;389;48.710;9.392;2024-02-21T13:25:18;17.60;64.20
814;DHT22;389;48.710;9.392;2024-02-21T13:27:46;17.50;63.60
814;DHT22;389;48.710;9.392;2024-02-21T13:30:12;17.50;62.80
814;DHT22;389;48.710;9.392;2024-02-21T13:32:41;17.50;63.00
814;DHT22;389;48.710;9.392;2024-02-21T13:35:07;17.50;62.40
814;DHT22;389;48.710;9.392;2024-02-21T13:37:33;17.60;62.90
814;DHT22;389;48.710;9.392;2024-02-21T13:58:05;17.40;65.50
814;DHT22;389;48.710;9.392;2024-02-21T14:00:31;17.40;65.50
814;DHT22;389;48.710;9.392;2024-02-21T14:03:02;17.40;65.50
814;DHT22;389;48.710;9.392;2024-02-21T14:05:30;17.50;66.20
814;DHT22;389;48.710;9.392;2024-02-21T14:07:56;17.40;66.20
814;DHT22;389;48.710;9.392;2024-02-21T14:10:25;17.30;65.60
814;DHT22;389;48.710;9.392;2024-02-21T14:12:57;17.30;65.90
814;DHT22;389;48.710;9.392;2024-02-21T14:15:23;17.20;65.70
814;DHT22;389;48.710;9.392;2024-02-21T14:17:53;17.20;66.60
814;DHT22;389;48.710;9.392;2024-02-21T14:23:15;17.20;65.60
814;DHT22;389;48.710;9.392;2024-02-21T14:25:42;17.20;65.70
814;DHT22;389;48.710;9.392;2024-02-21T14:28:16;17.10;65.60
814;DHT22;389;48.710;9.392;2024-02-21T14:30:47;17.00;66.30
814;DHT22;389;48.710;9.392;2024-02-21T14:33:22;17.00;66.30
814;DHT22;389;48.710;9.392;2024-02-21T14:35:52;16.90;66.40
814;DHT22;389;48.710;9.392;2024-02-21T14:38:19;16.90;66.70
814;DHT22;389;48.710;9.392;2024-02-21T14:40:45;16.70;66.80
814;DHT22;389;48.710;9.392;2024-02-21T14:43:11;16.80;66.80
814;DHT22;389;48.710;9.392;2024-02-21T14:45:36;16.90;66.90
814;DHT22;389;48.710;9.392;2024-02-21T14:48:04;16.90;66.80
814;DHT22;389;48.710;9.392;2024-02-21T14:50:33;16.90;67.20
814;DHT22;389;48.710;9.392;2024-02-21T14:52:59;17.00;67.70
814;DHT22;389;48.710;9.392;2024-02-21T14:55:24;17.00;67.80
814;DHT22;389;48.710;9.392;2024-02-21T14:57:50;17.00;67.50
814;DHT22;389;48.710;9.392;2024-02-21T15:00:16;17.00;67.20
814;DHT22;389;48.710;9.392;2024-02-21T15:02:42;17.00;66.30
814;DHT22;389;48.710;9.392;2024-02-21T15:05:11;17.00;65.50
814;DHT22;389;48.710;9.392;2024-02-21T15:07:38;16.80;65.90
814;DHT22;389;48.710;9.392;2024-02-21T15:10:07;16.80;66.60
814;DHT22;389;48.710;9.392;2024-02-21T15:12:33;16.80;67.00
814;DHT22;389;48.710;9.392;2024-02-21T15:14:58;16.70;65.60
814;DHT22;389;48.710;9.392;2024-02-21T15:17:24;16.70;65.40
814;DHT22;389;48.710;9.392;2024-02-21T15:19:51;16.70;66.10
814;DHT22;389;48.710;9.392;2024-02-21T15:22:20;16.60;67.40
814;DHT22;389;48.710;9.392;2024-02-21T15:24:46;16.50;67.70
814;DHT22;389;48.710;9.392;2024-02-21T15:27:14;16.50;67.90
814;DHT22;389;48.710;9.392;2024-02-21T15:29:40;16.40;67.90
814;DHT22;389;48.710;9.392;2024-02-21T15:32:06;16.30;68.10
814;DHT22;389;48.710;9.392;2024-02-21T15:34:32;16.00;68.10
814;DHT22;389;48.710;9.392;2024-02-21T15:36:58;16.10;68.60
814;DHT22;389;48.710;9.392;2024-02-21T15:39:24;16.00;69.10
814;DHT22;389;48.710;9.392;2024-02-21T15:41:53;15.90;69.60
814;DHT22;389;48.710;9.392;2024-02-21T15:44:19;15.80;70.20
814;DHT22;389;48.710;9.392;2024-02-21T15:46:47;15.80;70.80
814;DHT22;389;48.710;9.392;2024-02-21T15:49:12;15.70;71.10
814;DHT22;389;48.710;9.392;2024-02-21T15:51:41;15.60;71.50
814;DHT22;389;48.710;9.392;2024-02-21T15:54:09;15.50;70.80
814;DHT22;389;48.710;9.392;2024-02-21T15:56:35;15.50;71.00
814;DHT22;389;48.710;9.392;2024-02-21T15:59:01;15.40;71.20
814;DHT22;389;48.710;9.392;2024-02-21T16:01:28;15.30;71.30
814;DHT22;389;48.710;9.392;2024-02-21T16:03:59;15.20;71.80
814;DHT22;389;48.710;9.392;2024-02-21T16:06:24;15.10;72.00
814;DHT22;389;48.710;9.392;2024-02-21T16:08:50;15.10;72.40
814;DHT22;389;48.710;9.392;2024-02-21T16:11:16;15.00;72.70
814;DHT22;389;48.710;9.392;2024-02-21T16:13:43;14.90;72.60
814;DHT22;389;48.710;9.392;2024-02-21T16:16:09;14.70;73.00
814;DHT22;389;48.710;9.392;2024-02-21T16:18:35;14.70;73.60
814;DHT22;389;48.710;9.392;2024-02-21T16:21:01;14.70;74.10
814;DHT22;389;48.710;9.392;2024-02-21T16:23:27;14.60;74.50
814;DHT22;389;48.710;9.392;2024-02-21T16:25:53;14.50;75.00
814;DHT22;389;48.710;9.392;2024-02-21T16:28:18;14.50;75.40
814;DHT22;389;48.710;9.392;2024-02-21T16:30:44;14.40;75.80
814;DHT22;389;48.710;9.392;2024-02-21T16:33:10;14.30;76.30
814;DHT22;389;48.710;9.392;2024-02-21T16:35:36;14.30;76.90
814;DHT22;389;48.710;9.392;2024-02-21T16:38:05;14.20;77.60
814;DHT22;389;48.710;9.392;2024-02-21T16:40:33;14.10;78.10
814;DHT22;389;48.710;9.392;2024-02-21T16:43:01;14.00;78.70
814;DHT22;389;48.710;9.392;2024-02-21T16:45:33;13.80;79.30
814;DHT22;389;48.710;9.392;2024-02-21T16:47:59;13.80;80.40
814;DHT22;389;48.710;9.392;2024-02-21T16:50:25;13.70;80.20
814;DHT22;389;48.710;9.392;2024-02-21T16:52:51;13.60;80.10
814;DHT22;389;48.710;9.392;2024-02-21T16:55:16;13.50;80.20
814;DHT22;389;48.710;9.392;2024-02-21T16:57:42;13.50;80.50
814;DHT22;389;48.710;9.392;2024-02-21T17:00:08;13.30;80.60
814;DHT22;389;48.710;9.392;2024-02-21T17:02:40;13.20;81.30
814;DHT22;389;48.710;9.392;2024-02-21T17:05:06;13.10;82.20
814;DHT22;389;48.710;9.392;2024-02-21T17:07:33;13.00;83.40
814;DHT22;389;48.710;9.392;2024-02-21T17:09:59;12.90;83.90
814;DHT22;389;48.710;9.392;2024-02-21T17:12:26;12.90;84.50
814;DHT22;389;48.710;9.392;2024-02-21T17:14:53;12.70;84.80